Etusivu
METAR-TAF:

METAR-TAF

Lentoasemat :

Terre Haute, Indiana, Yhdysvallat

Leveyspiiri: 39-26-30N, Pituuspiiri: 087-19-31W, korkeus merenpinnasta: 178 m

Tämänhetkinen sää

Tämä raportti tehtiin 39 minuuttia sitten, kello 06.53 UTC
Tuuli 3 kn idästä/koillisesta
Lämpötila 2°C
Kosteus 100%
Ilmanpaine 1020 hPa
Näkyvyys: 16.1 km
selkeää

METAR: KHUF 020653Z 06003KT 10SM CLR 02/02 A3011 RMK AO2 SLP199 T00220017

Aika: 03:32 (07:32 UTC)

Sääennuste

Tämä raportti tehtiin 2 tuntia ja 12 minuuttia sitten, kello 05.20 UTC
Ennuste voimassa 02. päivästä klo 06 UTC - 03. päivään klo 06 UTC
Tuuli kn pohjoisesta
Näkyvyys: 10 km
Muutamia pilviä 25000 ft:n korkeudessa
From 03. päivästä klo 0300 UTC
Tuuli 4 kn eri suunnista
Näkyvyys: 10 km
Hajonneita pilviä 15000 ft:n korkeudessa

TAF: KHUF 020520Z 0206/0306 00000KT P6SM FEW250 FM030300 VRB04KT P6SM BKN150

Säähavainnot ja -ennusteet yli 4000 lentoasemalta (METAR- ja TAF-raportit).

Käytössä olevat sääasemat on merkitty karttaan keltaisilla ja punaisilla pisteillä.

Aseta hiiri pisteen päälle nähdäksesi sääaseman nimen.

Klikkaa sitten nähdäksesi säähavainnot ja -ennusteet.

Kartan vaihtaminen: klikkaa mustalla rastilla varustettuja vihreitä pisteitä, niin voit zoomata sisään; viivalla varustettua vihreää pistettä, niin voit zoomata ulos tai vihreitä nuolia, niin pääset viereisille kartoille.


METAR-TAF: